Time;durP1;ratioP1;P1;durP2;ratioP2;P2;SDS_P1;SDS_P2;PMS_P1;PMS_P2;Temp;Humidity;BMP_temperature;BMP_pressure;BME280_temperature;BME280_humidity;BME280_pressure;Samples;Min_cycle;Max_cycle;Signal;HPM_P1;HPM_P2
2022/06/15 00:01:00;;;;;;;9.60;4.80;;;15.90;99.90;;;;;;5084042;28;20184;-64
2022/06/15 00:03:30;;;;;;;5.10;3.00;;;16.20;99.90;;;;;;5084105;28;20428;-65
2022/06/15 00:06:28;;;;;;;4.67;3.13;;;16.40;99.90;;;;;;5072990;28;20341;-64
2022/06/15 00:08:58;;;;;;;9.53;3.77;;;15.60;99.90;;;;;;5072472;28;20207;-65
2022/06/15 00:11:34;;;;;;;7.73;3.00;;;16.00;99.90;;;;;;5073274;28;20180;-65
2022/06/15 00:14:06;;;;;;;4.87;3.03;;;15.80;99.90;;;;;;5072954;28;20215;-65
2022/06/15 00:16:35;;;;;;;7.03;4.00;;;16.10;99.90;;;;;;5073139;28;20176;-65
2022/06/15 00:19:04;;;;;;;12.80;5.83;;;16.30;99.90;;;;;;5072797;28;20176;-66
2022/06/15 00:21:32;;;;;;;7.00;5.20;;;16.10;99.90;;;;;;5092158;28;20616;-65
2022/06/15 00:23:59;;;;;;;4.27;3.80;;;16.30;99.90;;;;;;5093090;28;20609;-65
2022/06/15 00:26:27;;;;;;;4.90;3.57;;;16.50;99.90;;;;;;5079660;28;20325;-65
2022/06/15 00:28:55;;;;;;;6.37;3.30;;;16.90;99.90;;;;;;5079549;28;20225;-66
2022/06/15 00:31:23;;;;;;;4.90;2.97;;;17.00;99.90;;;;;;5092656;28;20645;-64
2022/06/15 00:33:51;;;;;;;10.70;2.90;;;17.00;99.90;;;;;;5093109;28;20668;-65
2022/06/15 00:36:21;;;;;;;4.90;3.00;;;16.80;99.90;;;;;;5092584;28;20274;-66
2022/06/15 00:38:54;;;;;;;5.73;3.83;;;16.60;99.90;;;;;;5106825;28;20168;-65
2022/06/15 00:41:31;;;;;;;6.43;3.57;;;17.10;99.90;;;;;;5097234;28;20209;-66
2022/06/15 00:44:02;;;;;;;6.90;3.13;;;17.10;99.90;;;;;;5092691;28;20633;-65
2022/06/15 00:46:39;;;;;;;5.97;3.40;;;17.50;99.90;;;;;;5092477;28;20232;-66
2022/06/15 00:49:23;;;;;;;5.83;3.63;;;17.50;99.90;;;;;;5092756;28;20183;-66
2022/06/15 00:51:54;;;;;;;10.20;3.57;;;17.50;99.90;;;;;;5092449;28;20278;-64
2022/06/15 00:54:24;;;;;;;8.13;3.47;;;17.30;99.90;;;;;;5091889;28;20221;-64
2022/06/15 00:56:54;;;;;;;4.90;3.57;;;17.90;99.90;;;;;;5092611;28;20175;-64
2022/06/15 00:59:36;;;;;;;7.27;5.07;;;17.90;99.90;;;;;;5091969;28;20188;-64
2022/06/15 01:02:04;;;;;;;4.13;2.50;;;18.30;99.90;;;;;;5092354;28;20177;-65
2022/06/15 01:04:40;;;;;;;6.33;2.87;;;18.40;99.90;;;;;;5091920;28;20183;-65
2022/06/15 01:07:17;;;;;;;6.07;2.57;;;18.80;99.90;;;;;;5092148;28;20172;-65
2022/06/15 01:10:08;;;;;;;6.13;2.37;;;18.30;99.90;;;;;;5092213;28;20176;-66
2022/06/15 01:12:51;;;;;;;5.97;2.10;;;18.30;99.90;;;;;;5090094;28;20914;-65
2022/06/15 01:15:39;;;;;;;6.03;3.67;;;18.60;99.90;;;;;;5086099;28;20191;-66
2022/06/15 01:18:12;;;;;;;7.13;2.50;;;19.00;99.90;;;;;;5092109;28;20256;-66
2022/06/15 01:21:07;;;;;;;8.03;3.03;;;19.20;99.90;;;;;;5071823;28;20172;-66
2022/06/15 01:23:44;;;;;;;6.10;3.70;;;19.10;99.90;;;;;;5071788;28;20258;-65
2022/06/15 01:26:32;;;;;;;16.63;3.13;;;19.70;99.90;;;;;;5078458;28;20222;-65
2022/06/15 01:29:13;;;;;;;7.93;3.07;;;19.80;99.90;;;;;;5042290;28;20199;-65
2022/06/15 01:31:50;;;;;;;7.43;3.23;;;20.00;99.90;;;;;;5091660;28;20179;-66
2022/06/15 01:34:30;;;;;;;15.20;8.77;;;20.30;99.90;;;;;;5090866;28;20716;-65
2022/06/15 01:37:16;;;;;;;7.70;4.00;;;19.90;99.90;;;;;;5085339;28;20753;-65
2022/06/15 01:39:55;;;;;;;14.27;3.97;;;20.10;99.90;;;;;;5072482;28;20603;-65
2022/06/15 01:42:28;;;;;;;9.00;3.47;;;20.10;99.90;;;;;;5091313;28;20221;-65
2022/06/15 01:45:05;;;;;;;12.40;4.37;;;20.10;99.90;;;;;;5091169;28;20182;-64
2022/06/15 01:47:35;;;;;;;11.13;3.67;;;20.20;99.90;;;;;;5091700;28;20566;-64
2022/06/15 01:50:10;;;;;;;6.23;2.93;;;20.20;99.90;;;;;;5091803;28;20832;-64
2022/06/15 01:52:53;;;;;;;37.10;27.67;;;20.50;99.90;;;;;;5071338;28;20677;-65
2022/06/15 01:55:33;;;;;;;18.73;12.30;;;20.40;99.90;;;;;;5071499;28;20229;-65
2022/06/15 01:58:08;;;;;;;42.03;29.63;;;20.30;99.90;;;;;;5072253;28;20636;-65
2022/06/15 02:00:36;;;;;;;7.07;4.83;;;20.20;99.90;;;;;;5072826;28;20189;-66
2022/06/15 02:03:31;;;;;;;6.00;2.60;;;20.00;99.90;;;;;;5072690;28;20576;-66
2022/06/15 02:06:30;;;;;;;4.23;2.20;;;20.80;99.90;;;;;;5073473;28;20192;-66
2022/06/15 02:09:20;;;;;;;6.50;5.03;;;21.30;99.90;;;;;;5091151;28;20190;-65
2022/06/15 02:11:48;;;;;;;4.00;1.60;;;20.90;99.90;;;;;;5033277;28;20237;-66
2022/06/15 02:14:43;;;;;;;4.60;1.60;;;20.90;99.90;;;;;;5090932;28;20550;-66
2022/06/15 02:17:37;;;;;;;7.03;1.70;;;20.60;99.90;;;;;;5091038;28;20627;-66
2022/06/15 02:20:18;;;;;;;5.53;1.63;;;20.60;99.90;;;;;;5083360;28;20850;-66
2022/06/15 02:22:49;;;;;;;1.80;1.23;;;20.90;99.90;;;;;;5091432;28;20177;-66
2022/06/15 02:25:21;;;;;;;4.63;2.23;;;21.10;99.90;;;;;;5090803;28;20579;-66
2022/06/15 02:27:50;;;;;;;4.53;1.97;;;21.10;99.90;;;;;;5070950;28;20198;-66
2022/06/15 02:30:25;;;;;;;3.27;1.83;;;21.30;99.90;;;;;;5062302;28;20266;-66
2022/06/15 02:32:53;;;;;;;5.60;1.60;;;21.80;99.90;;;;;;5091236;28;20289;-66
2022/06/15 02:35:22;;;;;;;4.00;1.47;;;21.70;99.90;;;;;;5090875;28;20655;-66
2022/06/15 02:37:51;;;;;;;5.27;1.50;;;22.00;99.90;;;;;;5073531;28;20277;-66
2022/06/15 02:40:22;;;;;;;5.77;1.33;;;22.20;99.90;;;;;;5073200;28;20186;-66
2022/06/15 02:42:50;;;;;;;6.90;1.57;;;22.10;99.00;;;;;;5091101;28;20180;-66
2022/06/15 02:45:19;;;;;;;5.23;2.07;;;22.30;99.90;;;;;;5090916;28;20185;-66
2022/06/15 02:47:47;;;;;;;2.77;1.40;;;22.50;99.90;;;;;;5091111;28;20257;-66
2022/06/15 02:50:20;;;;;;;4.43;1.37;;;22.20;95.30;;;;;;5093494;28;20194;-66
2022/06/15 02:53:11;;;;;;;2.07;1.30;;;21.40;98.60;;;;;;5094241;28;20179;-66
2022/06/15 02:55:39;;;;;;;1.17;0.90;;;21.70;96.60;;;;;;5074486;28;20183;-66
2022/06/15 02:58:16;;;;;;;3.47;1.00;;;21.50;95.60;;;;;;5091891;28;20186;-65
2022/06/15 03:00:44;;;;;;;2.07;1.20;;;21.70;94.10;;;;;;5094740;28;20186;-66
2022/06/15 03:03:11;;;;;;;1.33;0.87;;;21.70;93.60;;;;;;5094408;28;20684;-66
2022/06/15 03:05:40;;;;;;;2.00;1.30;;;22.10;94.10;;;;;;5094285;28;20182;-66
2022/06/15 03:08:07;;;;;;;2.47;1.37;;;22.20;94.40;;;;;;5088338;28;20184;-66
2022/06/15 03:10:34;;;;;;;3.47;1.33;;;22.30;93.40;;;;;;5074292;28;20183;-66
2022/06/15 03:13:02;;;;;;;3.67;1.13;;;22.30;90.80;;;;;;5074574;28;20209;-66
2022/06/15 03:15:29;;;;;;;5.77;1.20;;;21.20;91.40;;;;;;5094577;28;20187;-66
2022/06/15 03:17:56;;;;;;;2.57;1.20;;;21.30;96.70;;;;;;5094535;28;20276;-65
2022/06/15 03:20:25;;;;;;;1.80;1.30;;;22.00;94.20;;;;;;5094383;28;20174;-66
2022/06/15 03:22:52;;;;;;;1.90;1.30;;;22.10;92.30;;;;;;5094286;28;20208;-66
2022/06/15 03:25:20;;;;;;;1.57;1.07;;;22.30;91.20;;;;;;5093350;28;20171;-66
2022/06/15 03:27:48;;;;;;;1.67;1.00;;;22.80;90.40;;;;;;5094217;28;20709;-65
2022/06/15 03:30:17;;;;;;;1.40;1.13;;;22.80;91.60;;;;;;5075599;28;20311;-66
2022/06/15 03:32:44;;;;;;;1.40;1.00;;;22.60;89.50;;;;;;5090396;28;20553;-65
2022/06/15 03:35:12;;;;;;;1.83;1.20;;;22.00;91.30;;;;;;5094009;28;20253;-66
2022/06/15 03:37:40;;;;;;;2.80;1.30;;;22.40;92.10;;;;;;5093816;28;20619;-66
2022/06/15 03:40:10;;;;;;;4.03;2.10;;;22.80;90.40;;;;;;5094024;28;20205;-66
2022/06/15 03:42:40;;;;;;;4.50;1.60;;;22.40;91.80;;;;;;5093353;28;20257;-66
2022/06/15 03:45:12;;;;;;;5.20;1.00;;;22.80;91.60;;;;;;5093622;28;20182;-66
2022/06/15 03:47:42;;;;;;;2.00;1.23;;;23.20;90.00;;;;;;5092689;28;20633;-66
2022/06/15 03:50:10;;;;;;;1.63;1.20;;;23.60;90.00;;;;;;5073696;28;20215;-66
2022/06/15 03:52:37;;;;;;;2.63;1.60;;;22.80;87.10;;;;;;5062487;28;20176;-66
2022/06/15 03:55:05;;;;;;;2.53;1.33;;;23.10;85.50;;;;;;5072748;28;20238;-65
2022/06/15 03:57:33;;;;;;;2.77;1.73;;;22.50;86.30;;;;;;5092851;28;20231;-64
2022/06/15 04:00:00;;;;;;;4.63;1.70;;;22.80;86.10;;;;;;5094382;28;20307;-64
2022/06/15 04:02:28;;;;;;;3.93;1.50;;;22.70;86.30;;;;;;5093515;28;20211;-66
2022/06/15 04:04:55;;;;;;;2.93;1.27;;;23.20;86.60;;;;;;5085021;28;20278;-65
2022/06/15 04:10:10;;;;;;;2.67;1.27;;;23.60;80.50;;;;;;5089478;28;20569;-66
2022/06/15 04:12:38;;;;;;;1.67;1.00;;;23.60;82.30;;;;;;5092269;28;20187;-65
2022/06/15 04:15:07;;;;;;;3.80;1.30;;;23.40;76.70;;;;;;5092815;28;20222;-66
2022/06/15 04:17:34;;;;;;;2.87;1.90;;;23.30;79.40;;;;;;5093208;28;20179;-66
2022/06/15 04:22:46;;;;;;;3.90;1.10;;;23.60;76.10;;;;;;5093186;28;20258;-66
2022/06/15 04:25:14;;;;;;;9.13;1.30;;;23.60;76.10;;;;;;5092658;28;20190;-67
2022/06/15 04:27:42;;;;;;;2.80;0.90;;;23.80;72.50;;;;;;5093205;28;20218;-67
2022/06/15 04:30:12;;;;;;;6.50;1.07;;;24.00;76.40;;;;;;5093063;28;20179;-67
2022/06/15 04:32:39;;;;;;;5.70;1.20;;;23.20;74.60;;;;;;5093118;28;20211;-67
2022/06/15 04:35:07;;;;;;;2.37;1.20;;;23.80;72.20;;;;;;5092231;28;20333;-66
2022/06/15 04:37:37;;;;;;;8.00;1.30;;;23.90;72.20;;;;;;5092895;28;20167;-67
2022/06/15 04:40:06;;;;;;;5.17;1.30;;;23.30;72.90;;;;;;5092858;28;20217;-67
2022/06/15 04:42:33;;;;;;;3.23;1.00;;;23.60;73.50;;;;;;5092473;28;20191;-66
2022/06/15 04:45:01;;;;;;;1.80;1.17;;;23.50;72.60;;;;;;5092332;28;20178;-66
2022/06/15 04:47:28;;;;;;;1.50;1.00;;;23.00;73.90;;;;;;5092661;28;20555;-66
2022/06/15 04:49:55;;;;;;;3.00;1.30;;;23.00;72.00;;;;;;5092462;28;20694;-66
2022/06/15 04:52:23;;;;;;;4.53;1.10;;;22.90;73.90;;;;;;5092563;28;20312;-67
2022/06/15 04:54:50;;;;;;;2.07;0.93;;;23.00;72.60;;;;;;5092343;28;20218;-67
2022/06/15 04:57:17;;;;;;;3.00;1.20;;;23.40;74.00;;;;;;5092492;28;20272;-67
2022/06/15 04:59:45;;;;;;;1.73;0.90;;;23.40;69.70;;;;;;5091758;28;20186;-66
2022/06/15 05:02:12;;;;;;;1.77;0.93;;;23.40;72.50;;;;;;5091643;28;20537;-67
2022/06/15 05:04:40;;;;;;;3.33;1.00;;;22.80;75.00;;;;;;5092400;28;20714;-67
2022/06/15 05:07:07;;;;;;;4.10;1.67;;;22.60;77.90;;;;;;5092209;28;20186;-67
2022/06/15 05:09:35;;;;;;;2.17;1.30;;;22.20;76.70;;;;;;5092385;28;20259;-67
2022/06/15 05:12:02;;;;;;;2.90;1.30;;;22.40;75.40;;;;;;5092188;28;20190;-67
2022/06/15 05:14:30;;;;;;;1.83;0.90;;;22.20;74.90;;;;;;5085711;28;20206;-67
2022/06/15 05:16:57;;;;;;;2.60;1.10;;;22.30;78.30;;;;;;5086433;28;20188;-66
2022/06/15 05:19:25;;;;;;;7.63;3.63;;;22.30;78.00;;;;;;5071852;28;20179;-67
2022/06/15 05:21:53;;;;;;;8.20;3.60;;;22.40;79.10;;;;;;5071765;28;20776;-66
2022/06/15 05:24:20;;;;;;;7.90;4.27;;;22.40;78.80;;;;;;5071549;28;20652;-66
2022/06/15 05:26:48;;;;;;;5.27;3.67;;;22.30;78.00;;;;;;5071464;28;20279;-66
2022/06/15 05:29:15;;;;;;;8.03;1.77;;;22.00;79.10;;;;;;5071532;28;20191;-65
2022/06/15 05:31:42;;;;;;;7.60;1.60;;;21.80;78.30;;;;;;5053657;28;20182;-66
2022/06/15 05:34:10;;;;;;;6.30;1.67;;;21.10;80.10;;;;;;5071496;28;20211;-66
2022/06/15 05:36:37;;;;;;;4.77;1.40;;;20.50;84.90;;;;;;5071456;28;20201;-66
2022/06/15 05:39:06;;;;;;;2.90;1.20;;;20.10;88.60;;;;;;5071396;28;20588;-66
2022/06/15 05:41:33;;;;;;;4.63;1.43;;;19.70;88.70;;;;;;5071570;28;20702;-67
2022/06/15 05:44:03;;;;;;;2.40;1.10;;;19.40;95.90;;;;;;5090639;28;20185;-66
2022/06/15 05:46:33;;;;;;;2.20;1.47;;;19.00;98.20;;;;;;5074041;28;20175;-66
2022/06/15 05:49:02;;;;;;;3.80;1.77;;;18.60;99.90;;;;;;5091301;28;20186;-66
2022/06/15 05:51:30;;;;;;;3.33;1.47;;;18.30;99.90;;;;;;5078362;28;20631;-67
2022/06/15 05:53:58;;;;;;;2.80;1.27;;;18.20;99.90;;;;;;5091565;28;20773;-67
2022/06/15 05:56:25;;;;;;;5.10;2.03;;;18.00;99.90;;;;;;5090979;28;20598;-69
2022/06/15 05:58:53;;;;;;;4.37;2.07;;;17.80;99.90;;;;;;5092715;28;20206;-67
2022/06/15 06:01:28;;;;;;;6.67;2.00;;;17.50;99.90;;;;;;5092689;28;20223;-67
2022/06/15 06:03:56;;;;;;;4.47;1.70;;;17.40;99.90;;;;;;5092681;28;20178;-67
2022/06/15 06:06:23;;;;;;;3.03;1.33;;;17.10;99.90;;;;;;5092752;28;20329;-67
2022/06/15 06:08:51;;;;;;;4.57;1.27;;;16.90;99.90;;;;;;5092626;28;20605;-67
2022/06/15 06:11:19;;;;;;;2.37;1.27;;;16.80;99.90;;;;;;5092617;28;20175;-66
2022/06/15 06:13:47;;;;;;;2.93;1.40;;;16.60;99.90;;;;;;5092690;28;20578;-69
2022/06/15 06:16:15;;;;;;;3.57;1.10;;;16.40;99.90;;;;;;5092625;28;20190;-67
2022/06/15 06:18:42;;;;;;;4.63;1.53;;;16.30;99.90;;;;;;5092771;28;20220;-68
2022/06/15 06:21:10;;;;;;;1.33;1.10;;;16.20;99.90;;;;;;5092878;28;20629;-69
2022/06/15 06:23:38;;;;;;;3.07;1.17;;;16.00;99.90;;;;;;5092664;28;20168;-67
2022/06/15 06:26:06;;;;;;;5.13;1.27;;;15.90;99.90;;;;;;5096443;28;20223;-67
2022/06/15 06:28:38;;;;;;;3.77;1.20;;;15.70;99.90;;;;;;5096662;28;20708;-68
2022/06/15 06:31:09;;;;;;;3.20;1.30;;;15.60;99.90;;;;;;5096584;28;20194;-67
2022/06/15 06:33:37;;;;;;;8.20;1.40;;;15.40;99.90;;;;;;5096617;28;20682;-68
2022/06/15 06:36:15;;;;;;;3.40;1.10;;;15.30;99.90;;;;;;5096551;28;20254;-67
2022/06/15 06:38:42;;;;;;;1.33;1.23;;;15.10;99.90;;;;;;5096654;28;20297;-68
2022/06/15 06:41:11;;;;;;;3.40;1.30;;;14.90;99.90;;;;;;5096415;28;20213;-68
2022/06/15 06:43:38;;;;;;;2.97;1.20;;;14.70;99.90;;;;;;5096324;28;20515;-68
2022/06/15 06:46:06;;;;;;;7.60;1.63;;;14.60;99.90;;;;;;5096008;28;20556;-68
2022/06/15 06:48:33;;;;;;;2.13;1.77;;;14.40;99.90;;;;;;5096342;28;20744;-68
2022/06/15 06:51:00;;;;;;;7.60;2.03;;;14.30;99.90;;;;;;5096176;28;20172;-69
2022/06/15 06:53:28;;;;;;;15.03;2.30;;;14.20;99.90;;;;;;5096192;28;20203;-68
2022/06/15 06:56:01;;;;;;;15.17;1.73;;;14.00;99.90;;;;;;5096109;28;20203;-68
2022/06/15 06:58:28;;;;;;;6.70;1.73;;;13.90;99.90;;;;;;5078008;28;20180;-68
2022/06/15 07:00:56;;;;;;;5.27;1.43;;;13.90;99.90;;;;;;5096177;28;20222;-67
2022/06/15 07:03:24;;;;;;;5.63;1.63;;;13.80;99.90;;;;;;5095956;28;20184;-68
2022/06/15 07:05:51;;;;;;;9.47;2.17;;;13.70;99.90;;;;;;5095727;28;20186;-69
2022/06/15 07:08:19;;;;;;;6.83;2.17;;;13.50;99.90;;;;;;5096024;28;20171;-68
2022/06/15 07:10:46;;;;;;;8.27;2.07;;;13.30;99.90;;;;;;5095939;28;20187;-67
2022/06/15 07:13:13;;;;;;;8.67;2.43;;;13.20;99.90;;;;;;5077481;28;20766;-67
2022/06/15 07:15:41;;;;;;;2.87;1.70;;;13.10;99.90;;;;;;5095836;28;20629;-68
2022/06/15 07:18:08;;;;;;;4.20;2.10;;;13.00;99.90;;;;;;5077374;28;20538;-68
2022/06/15 07:20:36;;;;;;;4.67;2.30;;;12.90;99.90;;;;;;5095625;28;20315;-68
2022/06/15 07:23:04;;;;;;;10.53;2.60;;;12.80;99.90;;;;;;5095845;28;20197;-68
2022/06/15 07:25:31;;;;;;;6.87;2.60;;;12.80;99.90;;;;;;5095236;28;20217;-68
2022/06/15 07:27:58;;;;;;;11.00;3.80;;;12.70;99.90;;;;;;5095636;28;20196;-68
2022/06/15 07:30:28;;;;;;;10.73;3.20;;;12.60;99.90;;;;;;5095507;28;20261;-67
2022/06/15 07:32:55;;;;;;;7.47;3.00;;;12.50;99.90;;;;;;5095310;28;20216;-68
2022/06/15 07:35:32;;;;;;;5.07;2.90;;;12.40;99.90;;;;;;5094427;28;20214;-68
2022/06/15 07:38:00;;;;;;;8.57;3.53;;;12.30;99.90;;;;;;5077298;28;20189;-68
2022/06/15 07:40:27;;;;;;;10.30;4.03;;;12.30;99.90;;;;;;5095335;28;20181;-68
2022/06/15 07:42:56;;;;;;;8.13;4.53;;;12.20;99.90;;;;;;5095120;28;20228;-67
2022/06/15 07:45:25;;;;;;;11.53;4.37;;;12.10;99.90;;;;;;5095139;28;20265;-68
2022/06/15 07:50:41;;;;;;;8.57;4.43;;;12.00;99.90;;;;;;5095553;28;20189;-67
2022/06/15 07:53:11;;;;;;;17.30;5.27;;;12.00;99.90;;;;;;5094818;28;20601;-67
2022/06/15 07:55:41;;;;;;;9.97;4.57;;;11.90;99.90;;;;;;5094855;28;20181;-67
2022/06/15 07:58:11;;;;;;;16.43;4.90;;;11.80;99.90;;;;;;5095056;28;20174;-68
2022/06/15 08:00:41;;;;;;;12.83;5.73;;;11.80;99.90;;;;;;5094940;28;20263;-68
2022/06/15 08:03:09;;;;;;;11.13;5.43;;;11.70;99.90;;;;;;5094800;28;20269;-68
2022/06/15 08:05:44;;;;;;;9.40;4.37;;;11.70;99.90;;;;;;5094490;28;20184;-68
2022/06/15 08:08:15;;;;;;;11.17;4.40;;;11.70;99.90;;;;;;5094807;28;20622;-68
2022/06/15 08:10:43;;;;;;;15.23;4.10;;;11.70;99.90;;;;;;5094809;28;20174;-68
2022/06/15 08:13:11;;;;;;;16.33;6.93;;;11.70;99.90;;;;;;5094622;28;20177;-66
2022/06/15 08:15:41;;;;;;;14.37;6.50;;;11.70;99.90;;;;;;5094614;28;20185;-68
2022/06/15 08:18:15;;;;;;;33.63;14.53;;;11.60;99.90;;;;;;5094668;28;20170;-67
2022/06/15 08:20:54;;;;;;;17.07;8.23;;;11.60;99.90;;;;;;5076267;28;20187;-68
2022/06/15 08:23:24;;;;;;;10.27;4.93;;;11.50;99.90;;;;;;5076275;28;20642;-69
2022/06/15 08:25:59;;;;;;;14.20;4.97;;;11.40;99.90;;;;;;5094215;28;21039;-69
2022/06/15 08:28:31;;;;;;;9.70;4.63;;;11.50;99.90;;;;;;5076297;28;20189;-68
2022/06/15 08:30:59;;;;;;;11.07;4.50;;;11.40;99.90;;;;;;5094342;28;20272;-67
2022/06/15 08:33:27;;;;;;;10.83;4.20;;;11.40;99.90;;;;;;5094209;28;20204;-67
2022/06/15 08:35:55;;;;;;;7.07;3.60;;;11.40;99.90;;;;;;5094276;28;20279;-67
2022/06/15 08:38:25;;;;;;;9.37;3.83;;;11.40;99.90;;;;;;5094301;28;20174;-67
2022/06/15 08:41:03;;;;;;;5.80;3.30;;;11.30;99.90;;;;;;5094137;28;20601;-67
2022/06/15 08:43:33;;;;;;;6.10;2.87;;;11.40;99.90;;;;;;5075774;28;20183;-67
2022/06/15 08:46:08;;;;;;;9.53;4.00;;;11.60;99.90;;;;;;5093867;28;20180;-67
2022/06/15 08:48:45;;;;;;;7.87;4.07;;;11.60;99.90;;;;;;5093818;28;20202;-68
2022/06/15 08:51:30;;;;;;;9.33;4.03;;;11.50;99.90;;;;;;5094049;28;20184;-68
2022/06/15 08:54:00;;;;;;;13.23;3.70;;;11.60;99.90;;;;;;5093965;28;20216;-67
2022/06/15 08:56:41;;;;;;;10.90;4.30;;;11.50;99.90;;;;;;5093949;28;20168;-67
2022/06/15 08:59:11;;;;;;;9.77;3.83;;;11.40;99.90;;;;;;5093900;28;20713;-66
2022/06/15 09:01:50;;;;;;;7.20;3.97;;;11.30;99.90;;;;;;5093850;28;20189;-67
2022/06/15 09:04:41;;;;;;;12.47;4.10;;;11.10;99.90;;;;;;5075715;28;20224;-67
2022/06/15 09:07:46;;;;;;;9.43;4.17;;;11.00;99.90;;;;;;5093888;28;20175;-66
2022/06/15 09:10:33;;;;;;;7.73;3.73;;;10.80;99.90;;;;;;5063081;28;20299;-66
2022/06/15 09:13:25;;;;;;;11.03;4.07;;;10.80;99.90;;;;;;5095775;28;20183;-65
2022/06/15 09:16:05;;;;;;;9.93;3.80;;;10.70;99.90;;;;;;5057499;28;20200;-68
2022/06/15 09:19:10;;;;;;;12.63;4.23;;;10.50;99.90;;;;;;5093932;28;20529;-66
2022/06/15 09:21:48;;;;;;;9.83;4.93;;;10.50;99.90;;;;;;5011512;28;20183;-66
2022/06/15 09:24:21;;;;;;;10.23;4.20;;;10.40;99.90;;;;;;5067350;28;20195;-67
2022/06/15 09:26:53;;;;;;;15.77;5.47;;;10.40;99.90;;;;;;5093055;28;20636;-66
2022/06/15 09:29:50;;;;;;;9.17;4.20;;;10.40;99.90;;;;;;5093134;28;20180;-66
2022/06/15 09:32:25;;;;;;;8.43;3.73;;;10.30;99.90;;;;;;5093233;28;20194;-67
2022/06/15 09:34:56;;;;;;;5.77;3.57;;;10.30;99.90;;;;;;5093344;28;20214;-66
2022/06/15 09:37:26;;;;;;;8.27;4.07;;;10.20;99.90;;;;;;5093225;28;20675;-67
2022/06/15 09:39:54;;;;;;;7.70;3.93;;;10.20;99.90;;;;;;5093010;28;20261;-66
2022/06/15 09:42:23;;;;;;;11.10;4.50;;;10.20;99.90;;;;;;5092999;28;20234;-66
2022/06/15 09:44:54;;;;;;;9.10;3.20;;;10.10;99.90;;;;;;5092804;28;20195;-66
2022/06/15 09:47:32;;;;;;;7.27;3.83;;;10.10;99.90;;;;;;5093011;28;20723;-66
2022/06/15 09:50:11;;;;;;;7.10;4.47;;;10.20;99.90;;;;;;5092941;28;20215;-66
2022/06/15 09:52:46;;;;;;;6.97;3.27;;;10.20;99.90;;;;;;5093318;28;20240;-66
2022/06/15 09:55:27;;;;;;;7.97;3.90;;;10.20;99.90;;;;;;5092499;28;20272;-66
2022/06/15 09:57:56;;;;;;;7.43;3.83;;;10.30;99.90;;;;;;5092943;28;20172;-68
2022/06/15 10:00:24;;;;;;;7.30;4.03;;;10.30;99.90;;;;;;5074072;28;20233;-66
2022/06/15 10:03:02;;;;;;;9.43;4.23;;;10.30;99.90;;;;;;5093099;28;20176;-68
2022/06/15 10:05:37;;;;;;;8.13;4.27;;;10.30;99.90;;;;;;5092552;28;20590;-68
2022/06/15 10:08:09;;;;;;;7.33;3.87;;;10.30;99.90;;;;;;5092856;28;20633;-66
2022/06/15 10:10:41;;;;;;;10.93;5.10;;;10.30;99.90;;;;;;5092767;28;20177;-67
2022/06/15 10:13:18;;;;;;;8.27;4.43;;;10.40;99.90;;;;;;5074392;28;20196;-67
2022/06/15 10:15:53;;;;;;;11.13;4.53;;;10.40;99.90;;;;;;5092579;28;20217;-67
2022/06/15 10:18:36;;;;;;;9.97;4.43;;;10.40;99.90;;;;;;5092883;28;20176;-68
2022/06/15 10:21:15;;;;;;;9.27;4.33;;;10.40;99.90;;;;;;5092354;28;20198;-67
2022/06/15 10:23:55;;;;;;;8.87;4.33;;;10.30;99.90;;;;;;5092617;28;20214;-67
2022/06/15 10:26:38;;;;;;;10.43;4.13;;;10.30;99.90;;;;;;5092220;28;20223;-67
2022/06/15 10:29:24;;;;;;;10.50;4.70;;;10.30;99.90;;;;;;5092610;28;20183;-67
2022/06/15 10:32:22;;;;;;;8.43;4.20;;;10.30;99.90;;;;;;5074508;28;20224;-67
2022/06/15 10:35:08;;;;;;;9.93;4.50;;;10.30;99.90;;;;;;5090697;28;20222;-66
2022/06/15 10:38:04;;;;;;;10.27;4.67;;;10.30;99.90;;;;;;5092679;28;20173;-67
2022/06/15 10:40:33;;;;;;;10.93;5.03;;;10.30;99.90;;;;;;5090851;28;20197;-67
2022/06/15 10:43:18;;;;;;;6.47;4.40;;;10.30;99.90;;;;;;5074258;28;20186;-67
2022/06/15 10:45:58;;;;;;;9.20;4.43;;;10.30;99.90;;;;;;5092281;28;20180;-67
2022/06/15 10:48:36;;;;;;;9.50;4.83;;;10.20;99.90;;;;;;5092233;28;20240;-68
2022/06/15 10:51:12;;;;;;;11.63;4.50;;;10.10;99.90;;;;;;5092401;28;20181;-66
2022/06/15 10:53:48;;;;;;;11.97;4.80;;;10.10;99.90;;;;;;5092169;28;20199;-67
2022/06/15 11:02:41;;;;;;;8.80;4.57;;;9.90;99.90;;;;;;5086765;28;20196;-67
2022/06/15 11:05:25;;;;;;;11.37;4.50;;;9.80;99.90;;;;;;5092416;28;20629;-67
2022/06/15 11:08:01;;;;;;;8.57;4.57;;;9.70;99.90;;;;;;5092270;28;20169;-67
2022/06/15 11:10:41;;;;;;;10.67;5.50;;;9.60;99.90;;;;;;5075488;28;20189;-67
2022/06/15 11:13:36;;;;;;;14.43;6.33;;;9.60;99.90;;;;;;5095898;28;20633;-67
2022/06/15 11:19:29;;;;;;;10.23;5.63;;;9.40;99.90;;;;;;5013939;28;20269;-67
2022/06/15 11:22:05;;;;;;;14.47;6.80;;;9.30;99.90;;;;;;5092948;28;20187;-67
2022/06/15 11:24:42;;;;;;;13.60;6.73;;;9.20;99.90;;;;;;5095488;28;20164;-67
2022/06/15 11:27:28;;;;;;;12.47;7.37;;;9.20;99.90;;;;;;5095393;28;20355;-67
2022/06/15 11:30:16;;;;;;;12.03;6.77;;;9.10;99.90;;;;;;5095505;28;20167;-67
2022/06/15 11:32:46;;;;;;;12.00;6.40;;;9.00;99.90;;;;;;5093072;28;20191;-67
2022/06/15 11:35:13;;;;;;;13.10;5.73;;;9.00;99.90;;;;;;5091706;28;20211;-66
2022/06/15 11:37:49;;;;;;;13.60;6.67;;;9.00;99.90;;;;;;5092041;28;20279;-66
2022/06/15 11:41:00;;;;;;;15.20;6.37;;;8.90;99.90;;;;;;5091653;28;20271;-66
2022/06/15 11:43:55;;;;;;;9.60;5.10;;;8.90;99.90;;;;;;5062723;28;20195;-67
2022/06/15 11:46:56;;;;;;;15.00;5.33;;;8.90;99.90;;;;;;5092106;28;20202;-67
2022/06/15 11:49:39;;;;;;;10.20;4.90;;;8.80;99.90;;;;;;5104995;28;20269;-66
2022/06/15 11:52:39;;;;;;;10.63;5.30;;;8.70;99.90;;;;;;5094673;28;20183;-66
2022/06/15 11:55:43;;;;;;;13.10;5.90;;;8.70;99.90;;;;;;5078962;28;20219;-67
2022/06/15 11:58:53;;;;;;;11.47;5.30;;;8.70;99.90;;;;;;5090203;28;20240;-66
2022/06/15 12:01:53;;;;;;;7.80;5.33;;;8.60;99.90;;;;;;5036001;28;20248;-66
2022/06/15 12:04:48;;;;;;;15.97;5.40;;;8.60;99.90;;;;;;5076818;28;20197;-66
2022/06/15 12:07:37;;;;;;;8.67;5.30;;;8.50;99.90;;;;;;5085086;28;20175;-66
2022/06/15 12:10:21;;;;;;;9.03;5.30;;;8.60;99.90;;;;;;5083721;28;20258;-66
2022/06/15 12:12:58;;;;;;;12.43;6.43;;;8.60;99.90;;;;;;5088258;28;20175;-66
2022/06/15 12:15:46;;;;;;;13.90;6.37;;;8.60;99.90;;;;;;5087665;28;20257;-66
2022/06/15 12:18:28;;;;;;;13.60;6.13;;;8.60;99.90;;;;;;5088336;28;20179;-66
2022/06/15 12:21:27;;;;;;;11.37;6.20;;;8.60;99.90;;;;;;5085432;28;20176;-65
2022/06/15 12:24:21;;;;;;;11.30;5.80;;;8.50;99.90;;;;;;5084096;28;20183;-66
2022/06/15 12:27:16;;;;;;;11.50;6.77;;;8.40;99.90;;;;;;5082895;28;20292;-66
2022/06/15 12:30:07;;;;;;;12.60;6.73;;;8.40;99.90;;;;;;5084780;28;20183;-65
2022/06/15 12:32:43;;;;;;;9.23;5.73;;;8.40;99.90;;;;;;5086671;28;20179;-65
2022/06/15 12:35:26;;;;;;;10.00;5.60;;;8.30;99.90;;;;;;5083238;28;20275;-65
2022/06/15 12:38:20;;;;;;;10.03;5.77;;;8.40;99.90;;;;;;5083574;28;20623;-65
2022/06/15 12:40:59;;;;;;;10.53;5.20;;;8.40;99.90;;;;;;5082177;28;20231;-66
2022/06/15 12:43:33;;;;;;;7.00;5.13;;;8.50;99.90;;;;;;5091264;28;20511;-66
2022/06/15 12:46:09;;;;;;;11.30;7.50;;;8.60;99.90;;;;;;5090976;28;20199;-66
2022/06/15 12:48:45;;;;;;;10.03;5.70;;;8.70;99.90;;;;;;5094540;28;20288;-66
2022/06/15 12:51:49;;;;;;;8.00;5.27;;;8.80;99.90;;;;;;5075897;28;20203;-66
2022/06/15 12:54:38;;;;;;;7.80;5.67;;;8.70;99.90;;;;;;5094277;28;20663;-64
2022/06/15 12:57:25;;;;;;;8.30;5.10;;;8.70;99.90;;;;;;5093753;28;20231;-66
2022/06/15 13:00:13;;;;;;;9.23;5.10;;;8.60;99.90;;;;;;5075723;28;20255;-65
2022/06/15 13:02:46;;;;;;;12.27;5.37;;;8.60;99.90;;;;;;5093703;28;20175;-66
2022/06/15 13:05:33;;;;;;;8.07;5.50;;;8.60;99.90;;;;;;5093661;28;20179;-66
2022/06/15 13:08:22;;;;;;;9.37;5.50;;;8.60;99.90;;;;;;5093563;28;20187;-66
2022/06/15 13:11:00;;;;;;;9.87;7.20;;;8.50;99.90;;;;;;5075638;28;20175;-66
2022/06/15 13:13:39;;;;;;;12.40;7.10;;;8.50;99.90;;;;;;5090735;28;20213;-66
2022/06/15 13:16:15;;;;;;;9.00;6.60;;;8.50;99.90;;;;;;5074990;28;20188;-66
2022/06/15 13:18:46;;;;;;;8.90;6.60;;;8.40;99.90;;;;;;5075259;28;20279;-66
2022/06/15 13:21:22;;;;;;;9.20;6.00;;;8.30;99.90;;;;;;5092765;28;20483;-66
2022/06/15 13:24:08;;;;;;;10.50;6.40;;;8.20;99.90;;;;;;5084935;28;20259;-66
2022/06/15 13:26:39;;;;;;;10.87;6.87;;;8.20;99.90;;;;;;5093222;28;20317;-66
2022/06/15 13:29:15;;;;;;;10.97;6.47;;;8.10;99.90;;;;;;5093355;28;20261;-67
2022/06/15 13:31:43;;;;;;;9.40;6.30;;;8.10;99.90;;;;;;5093317;28;20171;-66
2022/06/15 13:34:16;;;;;;;12.83;6.00;;;8.10;99.90;;;;;;5092249;28;20242;-65
2022/06/15 13:37:03;;;;;;;9.83;5.57;;;8.10;99.90;;;;;;5073031;28;20173;-65
2022/06/15 13:39:46;;;;;;;8.77;6.07;;;8.10;99.90;;;;;;5090882;28;20301;-66
2022/06/15 13:42:33;;;;;;;12.77;6.00;;;8.10;99.90;;;;;;5092799;28;20729;-65